createdAt,value
2022-08-17T00:09:28.262Z,111.13
2022-08-17T00:19:33.051Z,110.13
2022-08-17T00:29:38.410Z,114.30
2022-08-17T00:39:42.347Z,103.87
2022-08-17T00:49:47.951Z,107.00
2022-08-17T00:59:56.040Z,105.67
2022-08-17T01:10:59.824Z,103.47
2022-08-17T01:20:46.670Z,104.97
2022-08-17T01:30:58.856Z,106.70
2022-08-17T01:41:07.441Z,108.97
2022-08-17T01:51:12.849Z,105.87
2022-08-17T02:01:25.016Z,104.30
2022-08-17T02:11:30.627Z,108.17
2022-08-17T02:21:36.391Z,109.90
2022-08-17T02:31:41.692Z,107.77
2022-08-17T02:41:45.824Z,107.53
2022-08-17T02:51:52.468Z,110.60
2022-08-17T03:01:56.745Z,108.30
2022-08-17T03:12:08.596Z,107.03
2022-08-17T03:22:36.789Z,102.53
2022-08-17T03:32:42.759Z,107.77
2022-08-17T03:42:46.770Z,104.37
2022-08-17T03:53:09.940Z,105.23
2022-08-17T04:03:14.470Z,106.90
2022-08-17T04:13:24.196Z,102.20
2022-08-17T04:23:33.818Z,106.60
2022-08-17T04:33:40.001Z,109.50
2022-08-17T04:43:46.503Z,111.50
2022-08-17T04:53:55.738Z,109.03
2022-08-17T05:04:20.976Z,111.43
2022-08-17T05:14:32.840Z,110.13
2022-08-17T05:24:42.644Z,114.67
2022-08-17T05:35:00.340Z,117.03
2022-08-17T05:45:04.874Z,120.17
2022-08-17T05:55:22.321Z,113.00
2022-08-17T06:05:45.331Z,116.40
2022-08-17T06:16:03.873Z,119.77
2022-08-17T06:26:14.973Z,117.83
2022-08-17T06:36:36.857Z,118.30
2022-08-17T06:46:48.746Z,124.83
2022-08-17T06:57:01.898Z,126.47
2022-08-17T07:07:24.470Z,124.63
2022-08-17T07:17:47.217Z,123.77
2022-08-17T07:27:54.547Z,129.10
2022-08-17T07:38:25.350Z,135.17
2022-08-17T07:48:30.292Z,137.18
2022-08-17T07:58:36.360Z,135.60
2022-08-17T08:08:43.801Z,136.85
2022-08-17T08:18:56.881Z,140.63
2022-08-17T08:29:12.687Z,145.23
2022-08-17T08:39:25.145Z,152.45
2022-08-17T08:50:09.501Z,141.20
2022-08-17T09:00:22.747Z,146.75
2022-08-17T09:10:34.967Z,160.57
2022-08-17T09:20:50.069Z,153.70
2022-08-17T09:31:03.178Z,154.05
2022-08-17T09:41:17.341Z,153.07
2022-08-17T09:51:26.991Z,155.90
2022-08-17T10:01:39.981Z,155.63
2022-08-17T10:12:06.599Z,158.82
2022-08-17T10:22:42.544Z,155.93
2022-08-17T10:32:50.714Z,164.85
2022-08-17T10:43:01.573Z,156.10
2022-08-17T10:53:05.314Z,151.00
2022-08-17T11:03:21.210Z,151.68
2022-08-17T11:13:41.177Z,151.00
2022-08-17T11:24:15.493Z,160.93
2022-08-17T11:34:21.877Z,162.40
2022-08-17T11:44:44.577Z,156.13
2022-08-17T11:54:50.213Z,162.27
2022-08-17T12:05:27.618Z,175.00
2022-08-17T12:15:36.535Z,188.90
2022-08-17T12:25:50.822Z,176.05
2022-08-17T12:36:00.275Z,162.38
2022-08-17T12:46:13.397Z,152.98
2022-08-17T12:56:20.198Z,150.88
2022-08-17T13:06:33.390Z,150.57
2022-08-17T13:16:37.706Z,158.27
2022-08-17T13:26:46.921Z,160.20
2022-08-17T13:36:52.271Z,144.77
2022-08-17T13:46:59.726Z,144.38
2022-08-17T13:57:06.853Z,140.48
2022-08-17T14:07:32.336Z,132.50
2022-08-17T14:17:38.942Z,145.82
2022-08-17T14:27:52.916Z,138.55
2022-08-17T14:37:58.245Z,138.25
2022-08-17T14:48:05.858Z,136.05
2022-08-17T14:58:10.531Z,135.63
2022-08-17T15:08:17.642Z,144.20
2022-08-17T15:18:21.450Z,135.10
2022-08-17T15:28:26.562Z,149.40
2022-08-17T15:38:39.280Z,144.68
2022-08-17T15:48:47.385Z,145.52
2022-08-17T15:58:52.256Z,155.35
2022-08-17T16:08:59.811Z,162.68
2022-08-17T16:19:06.492Z,174.95
2022-08-17T16:29:11.898Z,168.23
2022-08-17T16:39:16.234Z,153.52
2022-08-17T16:49:36.355Z,134.75
2022-08-17T16:59:44.924Z,126.37
2022-08-17T17:09:55.634Z,124.33
2022-08-17T17:20:08.549Z,127.40
2022-08-17T17:30:18.476Z,124.60
2022-08-17T17:40:27.097Z,126.73
2022-08-17T17:50:41.623Z,126.97
2022-08-17T18:00:55.780Z,126.70
2022-08-17T18:11:09.731Z,117.47
2022-08-17T18:21:19.482Z,120.50
2022-08-17T18:31:24.694Z,122.17
2022-08-17T18:41:30.622Z,117.50
2022-08-17T18:51:43.320Z,117.90
2022-08-17T19:02:11.625Z,116.23
2022-08-17T19:12:31.204Z,114.47
2022-08-17T19:22:49.713Z,116.13
2022-08-17T19:32:57.156Z,122.33
2022-08-17T19:43:08.557Z,118.57
2022-08-17T19:53:36.711Z,115.80
2022-08-17T20:03:58.669Z,112.83
2022-08-17T20:14:09.481Z,116.37
2022-08-17T20:24:27.494Z,117.30
2022-08-17T20:34:38.072Z,113.80
2022-08-17T20:44:44.199Z,114.90
2022-08-17T20:54:52.929Z,115.80
2022-08-17T21:05:09.186Z,123.03
2022-08-17T21:15:32.238Z,118.40
2022-08-17T21:26:11.327Z,122.63
2022-08-17T21:36:28.243Z,115.90
2022-08-17T21:46:37.134Z,117.50
2022-08-17T21:56:48.022Z,120.10
2022-08-17T22:06:57.667Z,114.30
2022-08-17T22:17:18.895Z,124.43
2022-08-17T22:27:22.766Z,118.13
2022-08-17T22:37:31.089Z,117.07
2022-08-17T22:47:43.245Z,115.00
2022-08-17T22:58:06.976Z,114.73
2022-08-17T23:08:12.996Z,113.30
2022-08-17T23:18:18.345Z,112.93
2022-08-17T23:28:22.435Z,113.33
2022-08-17T23:38:28.505Z,115.77
2022-08-17T23:48:35.722Z,112.33
2022-08-17T23:58:44.947Z,115.97
